Time;durP1;ratioP1;P1;durP2;ratioP2;P2;SDS_P1;SDS_P2;PMS_P1;PMS_P2;Temp;Humidity;BMP_temperature;BMP_pressure;BME280_temperature;BME280_humidity;BME280_pressure;Samples;Min_cycle;Max_cycle;Signal;HPM_P1;HPM_P2
2024/02/20 00:00:28;;;;;;;16.65;5.30;;;;;;;;;;1277306;23;20055;-74
2024/02/20 00:00:59;;;;;;;3.17;2.97;;;;;;;;;;1277895;23;20013;-74
2024/02/20 00:01:31;;;;;;;6.32;4.45;;;;;;;;;;1277726;23;20068;-74
2024/02/20 00:02:01;;;;;;;3.80;2.45;;;;;;;;;;1277734;23;20087;-74
2024/02/20 00:02:32;;;;;;;5.57;4.25;;;;;;;;;;1277621;23;20009;-74
2024/02/20 00:03:03;;;;;;;9.75;6.00;;;;;;;;;;1277802;23;20001;-74
2024/02/20 00:03:33;;;;;;;3.38;3.17;;;;;;;;;;1277606;23;20009;-74
2024/02/20 00:04:04;;;;;;;6.07;3.65;;;;;;;;;;1278082;23;20009;-74
2024/02/20 00:04:34;;;;;;;6.82;4.05;;;;;;;;;;1283962;23;20009;-74
2024/02/20 00:05:08;;;;;;;2.38;2.22;;;;;;;;;;1278345;23;20032;-75
2024/02/20 00:05:38;;;;;;;6.10;3.72;;;;;;;;;;1278003;23;20438;-75
2024/02/20 00:06:09;;;;;;;3.75;2.97;;;;;;;;;;1278178;23;20071;-75
2024/02/20 00:06:39;;;;;;;5.35;3.33;;;;;;;;;;1278185;23;20059;-74
2024/02/20 00:07:10;;;;;;;2.22;2.13;;;;;;;;;;1278029;23;20012;-75
2024/02/20 00:07:40;;;;;;;3.30;3.10;;;;;;;;;;1278053;23;19997;-74
2024/02/20 00:08:11;;;;;;;4.25;3.38;;;;;;;;;;1278255;23;20488;-75
2024/02/20 00:08:41;;;;;;;4.28;3.17;;;;;;;;;;1278144;23;20173;-74
2024/02/20 00:09:12;;;;;;;11.18;8.77;;;;;;;;;;1278318;23;20087;-74
2024/02/20 00:09:42;;;;;;;1.00;1.00;;;;;;;;;;1278076;23;20015;-74
2024/02/20 00:10:13;;;;;;;5.80;5.07;;;;;;;;;;1278009;23;20035;-75
2024/02/20 00:10:44;;;;;;;6.43;3.75;;;;;;;;;;1278340;23;20009;-75
2024/02/20 00:11:14;;;;;;;2.78;2.53;;;;;;;;;;1278192;23;20016;-74
2024/02/20 00:11:45;;;;;;;9.43;5.50;;;;;;;;;;1278265;23;20009;-74
2024/02/20 00:12:15;;;;;;;2.97;2.70;;;;;;;;;;1277970;23;20028;-74
2024/02/20 00:12:47;;;;;;;11.77;9.55;;;;;;;;;;1278307;23;20015;-74
2024/02/20 00:13:17;;;;;;;2.03;1.83;;;;;;;;;;1278127;23;20059;-75
2024/02/20 00:13:48;;;;;;;3.00;2.83;;;;;;;;;;1278206;23;20079;-75
2024/02/20 00:14:18;;;;;;;5.40;4.00;;;;;;;;;;1278073;23;20369;-74
2024/02/20 00:14:49;;;;;;;9.35;5.50;;;;;;;;;;1277977;23;20338;-74
2024/02/20 00:15:20;;;;;;;5.45;4.95;;;;;;;;;;1278107;23;20418;-74
2024/02/20 00:15:51;;;;;;;1.88;1.77;;;;;;;;;;1277647;23;20458;-74
2024/02/20 00:16:24;;;;;;;3.25;3.05;;;;;;;;;;1277584;23;20037;-74
2024/02/20 00:16:55;;;;;;;2.83;2.67;;;;;;;;;;1277742;23;20086;-74
2024/02/20 00:17:27;;;;;;;8.70;3.65;;;;;;;;;;1277612;23;20384;-74
2024/02/20 00:17:58;;;;;;;2.97;2.55;;;;;;;;;;1277755;23;20016;-74
2024/02/20 00:18:29;;;;;;;4.63;3.70;;;;;;;;;;1277962;23;20408;-74
2024/02/20 00:18:59;;;;;;;8.52;4.15;;;;;;;;;;1277845;23;20040;-74
2024/02/20 00:19:30;;;;;;;6.13;2.92;;;;;;;;;;1277763;23;20091;-74
2024/02/20 00:20:00;;;;;;;4.72;4.38;;;;;;;;;;1278218;23;20444;-74
2024/02/20 00:20:30;;;;;;;6.43;5.15;;;;;;;;;;1278106;23;20009;-74
2024/02/20 00:21:01;;;;;;;9.88;6.28;;;;;;;;;;1278236;23;20005;-74
2024/02/20 00:21:31;;;;;;;5.65;5.25;;;;;;;;;;1277586;23;19997;-74
2024/02/20 00:22:02;;;;;;;3.10;2.90;;;;;;;;;;1277704;23;20088;-74
2024/02/20 00:22:33;;;;;;;2.97;2.78;;;;;;;;;;1278173;23;20087;-74
2024/02/20 00:23:05;;;;;;;8.98;4.25;;;;;;;;;;1278611;23;20035;-74
2024/02/20 00:23:36;;;;;;;8.23;6.50;;;;;;;;;;1283893;23;20055;-74
2024/02/20 00:24:06;;;;;;;9.20;6.50;;;;;;;;;;1278578;23;20005;-74
2024/02/20 00:24:37;;;;;;;4.97;4.53;;;;;;;;;;1278409;23;20009;-74
2024/02/20 00:25:07;;;;;;;2.03;1.92;;;;;;;;;;1278703;23;20063;-74
2024/02/20 00:25:38;;;;;;;6.18;5.68;;;;;;;;;;1278379;23;20028;-74
2024/02/20 00:26:08;;;;;;;7.15;3.03;;;;;;;;;;1278548;23;20004;-74
2024/02/20 00:26:39;;;;;;;7.13;2.38;;;;;;;;;;1278035;23;20056;-74
2024/02/20 00:27:09;;;;;;;4.88;2.85;;;;;;;;;;1278057;23;20009;-74
2024/02/20 00:27:40;;;;;;;2.22;2.13;;;;;;;;;;1278071;23;20053;-74
2024/02/20 00:28:10;;;;;;;5.50;5.00;;;;;;;;;;1278164;23;20005;-74
2024/02/20 00:28:41;;;;;;;2.78;2.50;;;;;;;;;;1278165;23;20031;-74
2024/02/20 00:29:11;;;;;;;5.68;5.22;;;;;;;;;;1278635;23;20009;-74
2024/02/20 00:29:42;;;;;;;3.55;3.33;;;;;;;;;;1278483;23;19997;-74
2024/02/20 00:30:13;;;;;;;4.43;4.03;;;;;;;;;;1278379;23;20016;-74
2024/02/20 00:30:44;;;;;;;3.30;3.03;;;;;;;;;;1278626;23;20054;-74
2024/02/20 00:31:15;;;;;;;2.67;2.47;;;;;;;;;;1278493;23;20023;-74
2024/02/20 00:31:46;;;;;;;6.10;3.97;;;;;;;;;;1278554;23;19997;-74
2024/02/20 00:32:21;;;;;;;5.60;3.63;;;;;;;;;;1278260;23;20144;-74
2024/02/20 00:32:51;;;;;;;5.07;3.30;;;;;;;;;;1278689;23;20005;-74
2024/02/20 00:33:22;;;;;;;2.75;2.55;;;;;;;;;;1278516;23;20012;-74
2024/02/20 00:33:52;;;;;;;7.80;5.95;;;;;;;;;;1278486;23;20005;-75
2024/02/20 00:34:23;;;;;;;7.85;5.38;;;;;;;;;;1278387;23;20091;-74
2024/02/20 00:34:53;;;;;;;4.88;3.20;;;;;;;;;;1278684;23;20009;-74
2024/02/20 00:35:24;;;;;;;5.25;4.80;;;;;;;;;;1278432;23;20008;-74
2024/02/20 00:35:54;;;;;;;6.90;3.72;;;;;;;;;;1278495;23;20009;-74
2024/02/20 00:36:25;;;;;;;6.55;5.95;;;;;;;;;;1278364;23;20092;-74
2024/02/20 00:36:55;;;;;;;6.57;3.80;;;;;;;;;;1278522;23;20013;-74
2024/02/20 00:37:26;;;;;;;4.28;3.85;;;;;;;;;;1278279;23;20448;-74
2024/02/20 00:37:56;;;;;;;4.63;3.22;;;;;;;;;;1278503;23;20064;-74
2024/02/20 00:38:27;;;;;;;4.85;4.05;;;;;;;;;;1278524;23;20009;-74
2024/02/20 00:38:57;;;;;;;4.65;4.32;;;;;;;;;;1284381;23;20500;-74
2024/02/20 00:39:28;;;;;;;3.58;3.38;;;;;;;;;;1284190;23;20008;-74
2024/02/20 00:39:58;;;;;;;5.35;4.85;;;;;;;;;;1284411;23;20007;-74
2024/02/20 00:40:28;;;;;;;8.57;5.90;;;;;;;;;;1284321;23;20031;-75
2024/02/20 00:40:59;;;;;;;7.35;4.22;;;;;;;;;;1278687;23;20008;-75
2024/02/20 00:41:30;;;;;;;4.00;3.70;;;;;;;;;;1278388;23;20009;-74
2024/02/20 00:42:04;;;;;;;8.15;6.43;;;;;;;;;;1278377;23;20442;-74
2024/02/20 00:42:34;;;;;;;8.77;5.75;;;;;;;;;;1278458;23;20329;-74
2024/02/20 00:43:05;;;;;;;3.08;1.13;;;;;;;;;;1278595;23;20016;-74
2024/02/20 00:43:35;;;;;;;4.70;3.35;;;;;;;;;;1278351;23;20005;-74
2024/02/20 00:44:06;;;;;;;6.18;3.00;;;;;;;;;;1278560;23;20008;-74
2024/02/20 00:44:36;;;;;;;1.30;1.27;;;;;;;;;;1278497;23;20007;-74
2024/02/20 00:45:07;;;;;;;3.90;3.55;;;;;;;;;;1278678;23;20028;-74
2024/02/20 00:45:37;;;;;;;4.53;1.83;;;;;;;;;;1278340;23;20033;-74
2024/02/20 00:46:08;;;;;;;9.13;6.30;;;;;;;;;;1278446;23;20012;-74
2024/02/20 00:46:39;;;;;;;5.68;4.28;;;;;;;;;;1278506;23;20005;-74
2024/02/20 00:47:09;;;;;;;5.22;4.20;;;;;;;;;;1278466;23;20357;-74
2024/02/20 00:47:40;;;;;;;9.48;5.85;;;;;;;;;;1277959;23;20009;-74
2024/02/20 00:48:12;;;;;;;8.10;5.25;;;;;;;;;;1278194;23;20063;-74
2024/02/20 00:48:43;;;;;;;2.10;2.00;;;;;;;;;;1271938;23;20037;-74
2024/02/20 00:49:13;;;;;;;2.63;2.42;;;;;;;;;;1272408;23;20003;-74
2024/02/20 00:49:44;;;;;;;2.92;2.72;;;;;;;;;;1278214;23;19997;-74
2024/02/20 00:50:16;;;;;;;5.53;5.13;;;;;;;;;;1277867;23;20009;-74
2024/02/20 00:50:46;;;;;;;14.82;3.85;;;;;;;;;;1278634;23;20012;-74
2024/02/20 00:51:18;;;;;;;3.30;3.03;;;;;;;;;;1278393;23;20012;-74
2024/02/20 00:51:49;;;;;;;3.78;2.90;;;;;;;;;;1278515;23;20001;-74
2024/02/20 00:52:20;;;;;;;5.05;4.72;;;;;;;;;;1278199;23;20099;-74
2024/02/20 00:52:50;;;;;;;2.38;2.28;;;;;;;;;;1278085;23;20009;-74
2024/02/20 00:53:21;;;;;;;4.00;3.28;;;;;;;;;;1278009;23;20064;-74
2024/02/20 00:53:51;;;;;;;0.70;0.70;;;;;;;;;;1278111;23;20069;-74
2024/02/20 00:54:22;;;;;;;2.28;2.08;;;;;;;;;;1278012;23;20088;-74
2024/02/20 00:54:52;;;;;;;3.90;3.55;;;;;;;;;;1278651;23;20430;-74
2024/02/20 00:55:23;;;;;;;5.43;5.10;;;;;;;;;;1278413;23;20338;-74
2024/02/20 00:55:53;;;;;;;4.93;4.47;;;;;;;;;;1278428;23;20008;-74
2024/02/20 00:56:24;;;;;;;2.42;2.05;;;;;;;;;;1278434;23;20015;-74
2024/02/20 00:56:54;;;;;;;4.97;4.38;;;;;;;;;;1278620;23;20523;-74
2024/02/20 00:57:26;;;;;;;3.35;1.58;;;;;;;;;;1277799;23;20497;-74
2024/02/20 00:57:58;;;;;;;2.33;2.15;;;;;;;;;;1278070;23;20009;-74
2024/02/20 00:58:28;;;;;;;9.52;5.43;;;;;;;;;;1278003;23;20005;-75
2024/02/20 00:58:59;;;;;;;5.13;3.65;;;;;;;;;;1278194;23;20009;-74
2024/02/20 00:59:29;;;;;;;2.10;1.98;;;;;;;;;;1278315;23;20041;-74
2024/02/20 01:00:00;;;;;;;11.30;3.00;;;;;;;;;;1277965;23;20385;-74
2024/02/20 01:00:30;;;;;;;2.60;2.40;;;;;;;;;;1277737;23;20008;-74
2024/02/20 01:01:01;;;;;;;4.75;4.25;;;;;;;;;;1271984;23;20024;-74
2024/02/20 01:01:31;;;;;;;5.25;4.78;;;;;;;;;;1272018;23;20009;-74
2024/02/20 01:02:02;;;;;;;12.90;4.68;;;;;;;;;;1278003;23;20009;-74
2024/02/20 01:02:32;;;;;;;3.38;3.08;;;;;;;;;;1277932;23;20005;-75
2024/02/20 01:03:03;;;;;;;1.40;1.33;;;;;;;;;;1284451;23;20008;-75
2024/02/20 01:03:34;;;;;;;2.50;2.33;;;;;;;;;;1277496;23;20009;-74
2024/02/20 01:04:04;;;;;;;6.53;3.85;;;;;;;;;;1278064;23;20009;-74
2024/02/20 01:04:36;;;;;;;4.68;3.78;;;;;;;;;;1278181;23;20087;-75
2024/02/20 01:05:07;;;;;;;4.35;4.00;;;;;;;;;;1278381;23;20032;-75
2024/02/20 01:05:38;;;;;;;2.28;2.08;;;;;;;;;;1278377;23;20470;-75
2024/02/20 01:06:09;;;;;;;7.97;4.85;;;;;;;;;;1278047;23;20059;-74
2024/02/20 01:06:40;;;;;;;5.47;4.65;;;;;;;;;;1278127;23;20008;-74
2024/02/20 01:07:11;;;;;;;3.13;2.85;;;;;;;;;;1277938;23;20004;-74
2024/02/20 01:07:41;;;;;;;4.57;4.25;;;;;;;;;;1277860;23;19997;-75
2024/02/20 01:08:12;;;;;;;1.98;1.83;;;;;;;;;;1277862;23;20011;-74
2024/02/20 01:08:42;;;;;;;4.32;4.03;;;;;;;;;;1278107;23;20012;-74
2024/02/20 01:09:13;;;;;;;1.85;1.75;;;;;;;;;;1277738;23;20005;-75
2024/02/20 01:09:43;;;;;;;6.32;2.88;;;;;;;;;;1278234;23;20054;-75
2024/02/20 01:10:14;;;;;;;4.63;4.05;;;;;;;;;;1282675;23;20024;-74
2024/02/20 01:10:44;;;;;;;2.70;2.50;;;;;;;;;;1278138;23;20037;-74
2024/02/20 01:11:15;;;;;;;9.63;6.20;;;;;;;;;;1278014;23;20043;-75
2024/02/20 01:11:45;;;;;;;8.65;3.25;;;;;;;;;;1271858;23;20358;-75
2024/02/20 01:12:16;;;;;;;5.20;4.07;;;;;;;;;;1271679;23;20032;-75
2024/02/20 01:12:46;;;;;;;3.90;3.25;;;;;;;;;;1278149;23;20059;-74
2024/02/20 01:13:16;;;;;;;4.15;3.90;;;;;;;;;;1277939;23;20016;-74
2024/02/20 01:13:47;;;;;;;7.28;4.05;;;;;;;;;;1278406;23;20008;-74
2024/02/20 01:14:17;;;;;;;14.55;4.68;;;;;;;;;;1278276;23;20005;-74
2024/02/20 01:14:48;;;;;;;3.45;2.08;;;;;;;;;;1277902;23;20244;-74
2024/02/20 01:15:18;;;;;;;4.93;4.45;;;;;;;;;;1278418;23;20055;-74
2024/02/20 01:15:49;;;;;;;8.90;5.72;;;;;;;;;;1278515;23;20009;-74
2024/02/20 01:16:20;;;;;;;4.97;4.65;;;;;;;;;;1278084;23;20009;-74
2024/02/20 01:16:50;;;;;;;5.45;4.95;;;;;;;;;;1278497;23;20490;-74
2024/02/20 01:17:21;;;;;;;7.22;5.00;;;;;;;;;;1278238;23;20016;-74
2024/02/20 01:17:52;;;;;;;7.85;4.38;;;;;;;;;;1277899;23;20302;-74
2024/02/20 01:18:23;;;;;;;3.20;2.83;;;;;;;;;;1278335;23;20005;-74
2024/02/20 01:18:54;;;;;;;1.80;1.70;;;;;;;;;;1278418;23;20089;-74
2024/02/20 01:19:24;;;;;;;4.78;4.38;;;;;;;;;;1277133;23;20012;-74
2024/02/20 01:19:54;;;;;;;9.20;4.78;;;;;;;;;;1277260;23;20442;-74
2024/02/20 01:20:27;;;;;;;9.25;4.32;;;;;;;;;;1277711;23;20091;-74
2024/02/20 01:20:57;;;;;;;10.73;4.03;;;;;;;;;;1277873;23;20445;-74
2024/02/20 01:21:28;;;;;;;8.02;2.90;;;;;;;;;;1277870;23;20001;-74
2024/02/20 01:21:58;;;;;;;8.95;5.65;;;;;;;;;;1277301;23;20454;-74
2024/02/20 01:22:29;;;;;;;5.38;4.93;;;;;;;;;;1276953;23;20005;-75
2024/02/20 01:22:59;;;;;;;3.95;3.65;;;;;;;;;;1276568;23;20005;-74
2024/02/20 01:23:30;;;;;;;4.88;2.53;;;;;;;;;;1270972;23;20338;-74
2024/02/20 01:24:00;;;;;;;3.50;3.30;;;;;;;;;;1277527;23;20009;-74
2024/02/20 01:24:30;;;;;;;5.18;4.15;;;;;;;;;;1277742;23;20013;-75
2024/02/20 01:25:01;;;;;;;4.07;3.22;;;;;;;;;;1277768;23;20096;-74
2024/02/20 01:25:31;;;;;;;3.03;2.80;;;;;;;;;;1277471;23;20036;-74
2024/02/20 01:26:02;;;;;;;5.78;3.63;;;;;;;;;;1277648;23;20341;-74
2024/02/20 01:26:32;;;;;;;13.57;4.15;;;;;;;;;;1278158;23;20009;-74
2024/02/20 01:27:03;;;;;;;4.20;3.85;;;;;;;;;;1277569;23;20071;-74
2024/02/20 01:27:33;;;;;;;8.93;3.00;;;;;;;;;;1271472;23;20088;-75
2024/02/20 01:28:04;;;;;;;6.07;3.38;;;;;;;;;;1277922;23;20422;-75
2024/02/20 01:28:34;;;;;;;5.05;3.47;;;;;;;;;;1271788;23;20485;-75
2024/02/20 01:29:05;;;;;;;4.07;3.35;;;;;;;;;;1271959;23;20005;-75
2024/02/20 01:29:36;;;;;;;5.90;5.05;;;;;;;;;;1273965;23;20446;-74
2024/02/20 01:30:07;;;;;;;5.55;5.13;;;;;;;;;;1276824;23;20015;-75
2024/02/20 01:30:38;;;;;;;3.50;3.20;;;;;;;;;;1277681;23;20012;-75
2024/02/20 01:31:13;;;;;;;3.83;3.53;;;;;;;;;;1278002;23;20009;-75
2024/02/20 01:31:44;;;;;;;13.68;4.47;;;;;;;;;;1277927;23;20009;-75
2024/02/20 01:32:14;;;;;;;1.42;1.33;;;;;;;;;;1277581;23;20009;-75
2024/02/20 01:32:45;;;;;;;7.72;5.20;;;;;;;;;;1278029;23;20005;-74
2024/02/20 01:33:15;;;;;;;1.58;1.50;;;;;;;;;;1277322;23;20012;-74
2024/02/20 01:33:46;;;;;;;10.52;7.20;;;;;;;;;;1277237;23;20013;-74
2024/02/20 01:34:16;;;;;;;1.95;1.85;;;;;;;;;;1277312;23;20009;-74
2024/02/20 01:34:47;;;;;;;14.90;2.75;;;;;;;;;;1271713;23;20008;-74
2024/02/20 01:35:17;;;;;;;1.90;1.80;;;;;;;;;;1271445;23;20012;-74
2024/02/20 01:35:48;;;;;;;11.57;2.90;;;;;;;;;;1271581;23;20016;-74
2024/02/20 01:36:19;;;;;;;6.22;3.13;;;;;;;;;;1272975;23;20005;-75
2024/02/20 01:36:52;;;;;;;3.78;3.10;;;;;;;;;;1278894;23;20009;-75
2024/02/20 01:37:29;;;;;;;4.63;3.03;;;;;;;;;;1279722;23;20087;-75
2024/02/20 01:38:00;;;;;;;2.85;1.73;;;;;;;;;;1283849;23;20855;-75
2024/02/20 01:38:34;;;;;;;1.77;1.67;;;;;;;;;;1275523;23;20101;-74
2024/02/20 01:39:05;;;;;;;2.58;2.38;;;;;;;;;;1274617;23;20010;-74
2024/02/20 01:39:36;;;;;;;4.78;4.25;;;;;;;;;;1270767;23;20013;-74
2024/02/20 01:40:10;;;;;;;2.78;2.60;;;;;;;;;;1266164;23;20017;-75
2024/02/20 01:40:43;;;;;;;2.40;1.73;;;;;;;;;;1265140;23;20005;-75
2024/02/20 01:41:13;;;;;;;4.05;3.78;;;;;;;;;;1266542;23;20124;-75
2024/02/20 01:41:44;;;;;;;3.50;3.17;;;;;;;;;;1272158;23;20005;-74
2024/02/20 01:42:15;;;;;;;4.88;3.75;;;;;;;;;;1269988;23;20381;-75
2024/02/20 01:42:58;;;;;;;3.40;2.55;;;;;;;;;;1277658;23;20009;-75
2024/02/20 01:43:29;;;;;;;3.05;2.85;;;;;;;;;;1270757;23;20429;-74
2024/02/20 01:44:00;;;;;;;5.85;4.05;;;;;;;;;;1274529;23;20014;-74
2024/02/20 01:44:31;;;;;;;3.65;2.95;;;;;;;;;;1271457;23;20064;-75
2024/02/20 01:45:02;;;;;;;2.92;2.67;;;;;;;;;;1272094;23;20343;-75
2024/02/20 01:45:33;;;;;;;5.60;4.30;;;;;;;;;;1271574;23;20104;-75
2024/02/20 01:46:04;;;;;;;13.20;6.55;;;;;;;;;;1266403;23;20108;-74
2024/02/20 01:46:36;;;;;;;4.22;2.50;;;;;;;;;;1265121;23;20081;-75
2024/02/20 01:47:06;;;;;;;4.55;3.75;;;;;;;;;;1259936;23;19999;-75
2024/02/20 01:47:39;;;;;;;4.75;4.03;;;;;;;;;;1264362;23;20104;-75
2024/02/20 01:48:09;;;;;;;3.03;2.75;;;;;;;;;;1271342;23;20084;-74
2024/02/20 01:48:40;;;;;;;8.90;4.72;;;;;;;;;;1277948;23;20031;-75
2024/02/20 01:49:11;;;;;;;1.08;1.02;;;;;;;;;;1283586;23;20156;-75
2024/02/20 01:49:42;;;;;;;10.10;5.20;;;;;;;;;;1277394;23;20005;-74
2024/02/20 01:50:13;;;;;;;3.80;1.98;;;;;;;;;;1276977;23;20107;-75
2024/02/20 01:50:51;;;;;;;6.18;2.58;;;;;;;;;;1278516;23;20004;-74
2024/02/20 01:51:23;;;;;;;5.10;4.05;;;;;;;;;;1277350;23;20056;-75
2024/02/20 01:51:55;;;;;;;3.00;2.80;;;;;;;;;;1272970;23;20005;-75
2024/02/20 01:52:26;;;;;;;7.95;3.45;;;;;;;;;;1271308;23;20353;-75
2024/02/20 01:52:57;;;;;;;1.80;1.70;;;;;;;;;;1271200;23;20005;-75
2024/02/20 01:53:30;;;;;;;3.38;3.10;;;;;;;;;;1271352;23;20013;-75
2024/02/20 01:54:00;;;;;;;3.58;3.28;;;;;;;;;;1277821;23;20009;-75
2024/02/20 01:54:34;;;;;;;5.85;3.35;;;;;;;;;;1277870;23;20005;-75
2024/02/20 01:55:06;;;;;;;3.00;2.40;;;;;;;;;;1271972;23;20016;-75
2024/02/20 01:55:38;;;;;;;4.97;4.55;;;;;;;;;;1270778;23;20120;-75
2024/02/20 01:56:10;;;;;;;3.47;2.58;;;;;;;;;;1272010;23;20041;-75
2024/02/20 01:56:40;;;;;;;4.30;3.65;;;;;;;;;;1271962;23;20016;-75
2024/02/20 01:57:11;;;;;;;3.78;3.47;;;;;;;;;;1278663;23;20012;-75
2024/02/20 01:57:43;;;;;;;3.22;3.03;;;;;;;;;;1278072;23;20315;-75
2024/02/20 01:58:14;;;;;;;7.38;4.20;;;;;;;;;;1271559;23;20009;-75
2024/02/20 01:58:45;;;;;;;4.13;2.70;;;;;;;;;;1271792;23;20438;-76
2024/02/20 01:59:16;;;;;;;3.28;3.05;;;;;;;;;;1271669;23;20382;-74
2024/02/20 01:59:47;;;;;;;1.85;1.77;;;;;;;;;;1271827;23;20005;-74
2024/02/20 02:00:17;;;;;;;8.20;5.80;;;;;;;;;;1277314;23;20047;-74
2024/02/20 02:00:48;;;;;;;6.30;2.63;;;;;;;;;;1277610;23;20069;-74
2024/02/20 02:01:24;;;;;;;3.65;2.80;;;;;;;;;;1277484;23;20009;-74
2024/02/20 02:01:55;;;;;;;5.45;4.75;;;;;;;;;;1277484;23;20017;-74
2024/02/20 02:02:26;;;;;;;3.38;3.08;;;;;;;;;;1277891;23;20076;-74
2024/02/20 02:02:56;;;;;;;5.18;3.88;;;;;;;;;;1277753;23;20008;-76
2024/02/20 02:03:27;;;;;;;2.15;2.05;;;;;;;;;;1277422;23;20005;-75
2024/02/20 02:03:58;;;;;;;1.65;1.17;;;;;;;;;;1276774;23;20047;-75
2024/02/20 02:04:28;;;;;;;5.82;4.18;;;;;;;;;;1278082;23;20016;-76
2024/02/20 02:04:59;;;;;;;4.75;2.67;;;;;;;;;;1278234;23;20059;-75
2024/02/20 02:05:29;;;;;;;8.20;5.03;;;;;;;;;;1277966;23;20084;-75
2024/02/20 02:06:00;;;;;;;6.53;5.50;;;;;;;;;;1277637;23;20356;-75
2024/02/20 02:06:31;;;;;;;2.78;2.55;;;;;;;;;;1277665;23;20087;-75
2024/02/20 02:07:02;;;;;;;1.88;1.80;;;;;;;;;;1277866;23;20100;-75
2024/02/20 02:07:32;;;;;;;12.50;3.25;;;;;;;;;;1277539;23;20015;-75
2024/02/20 02:08:03;;;;;;;3.85;3.47;;;;;;;;;;1277918;23;20492;-75
2024/02/20 02:08:33;;;;;;;5.40;4.93;;;;;;;;;;1278278;23;20016;-75
2024/02/20 02:09:04;;;;;;;5.35;2.15;;;;;;;;;;1277869;23;20100;-76
2024/02/20 02:09:34;;;;;;;4.28;3.95;;;;;;;;;;1277116;23;20497;-75
2024/02/20 02:10:05;;;;;;;8.23;6.22;;;;;;;;;;1277578;23;20429;-75
2024/02/20 02:10:35;;;;;;;7.20;4.32;;;;;;;;;;1278111;23;20009;-75
2024/02/20 02:11:06;;;;;;;3.80;3.38;;;;;;;;;;1283961;23;20082;-75
2024/02/20 02:11:39;;;;;;;4.18;3.80;;;;;;;;;;1283684;23;20004;-75
2024/02/20 02:12:09;;;;;;;7.38;4.13;;;;;;;;;;1277145;23;20008;-75
2024/02/20 02:12:40;;;;;;;5.55;5.15;;;;;;;;;;1278010;23;20108;-75
2024/02/20 02:13:10;;;;;;;6.18;5.57;;;;;;;;;;1277655;23;20397;-75
2024/02/20 02:13:41;;;;;;;0.77;0.77;;;;;;;;;;1269746;23;20013;-75
2024/02/20 02:14:11;;;;;;;2.72;2.08;;;;;;;;;;1276075;23;20009;-75
2024/02/20 02:14:45;;;;;;;2.53;2.30;;;;;;;;;;1271235;23;20009;-77
2024/02/20 02:15:16;;;;;;;11.15;3.05;;;;;;;;;;1270208;23;20125;-75
2024/02/20 02:15:47;;;;;;;9.77;4.15;;;;;;;;;;1277282;23;20083;-75
2024/02/20 02:16:17;;;;;;;6.50;5.22;;;;;;;;;;1277727;23;20013;-75
2024/02/20 02:16:48;;;;;;;4.40;4.10;;;;;;;;;;1277622;23;20008;-75
2024/02/20 02:17:18;;;;;;;4.43;3.25;;;;;;;;;;1275282;23;20137;-75
2024/02/20 02:17:49;;;;;;;15.90;4.45;;;;;;;;;;1276322;23;20350;-75
2024/02/20 02:18:19;;;;;;;9.27;7.13;;;;;;;;;;1276796;23;20009;-75
2024/02/20 02:18:50;;;;;;;5.30;4.90;;;;;;;;;;1277828;23;20005;-75
2024/02/20 02:19:20;;;;;;;10.68;5.15;;;;;;;;;;1276814;23;20005;-75
2024/02/20 02:19:51;;;;;;;7.03;5.07;;;;;;;;;;1275286;23;20457;-76
2024/02/20 02:20:21;;;;;;;6.47;4.28;;;;;;;;;;1277002;23;20322;-75
2024/02/20 02:20:52;;;;;;;4.43;4.03;;;;;;;;;;1277785;23;20015;-75
2024/02/20 02:21:22;;;;;;;6.60;3.33;;;;;;;;;;1277467;23;20035;-75
2024/02/20 02:21:52;;;;;;;7.05;5.93;;;;;;;;;;1276996;23;20009;-75
2024/02/20 02:22:23;;;;;;;16.58;5.72;;;;;;;;;;1277394;23;20008;-75
2024/02/20 02:22:54;;;;;;;7.05;5.55;;;;;;;;;;1277290;23;20004;-75
2024/02/20 02:23:24;;;;;;;7.53;5.68;;;;;;;;;;1273885;23;20009;-75
2024/02/20 02:23:55;;;;;;;32.70;4.82;;;;;;;;;;1276227;23;20009;-75
2024/02/20 02:24:26;;;;;;;4.22;3.90;;;;;;;;;;1270853;23;20067;-75
2024/02/20 02:24:56;;;;;;;2.72;2.22;;;;;;;;;;1264436;23;20017;-75
2024/02/20 02:25:27;;;;;;;2.60;2.42;;;;;;;;;;1264595;23;20010;-75
2024/02/20 02:25:58;;;;;;;7.05;3.38;;;;;;;;;;1271168;23;20016;-75
2024/02/20 02:26:32;;;;;;;3.95;3.67;;;;;;;;;;1277057;23;20005;-75
2024/02/20 02:27:05;;;;;;;3.88;3.58;;;;;;;;;;1277777;23;20005;-75
2024/02/20 02:27:39;;;;;;;2.00;1.48;;;;;;;;;;1276787;23;20016;-76
2024/02/20 02:28:11;;;;;;;4.32;3.92;;;;;;;;;;1277382;23;20083;-75
2024/02/20 02:28:47;;;;;;;2.50;2.35;;;;;;;;;;1283001;23;20027;-75
2024/02/20 02:29:17;;;;;;;5.00;3.65;;;;;;;;;;1283016;23;20393;-75
2024/02/20 02:29:48;;;;;;;2.55;2.42;;;;;;;;;;1282302;23;20004;-73
2024/02/20 02:30:19;;;;;;;6.18;3.70;;;;;;;;;;1281278;23;19997;-76
2024/02/20 02:30:49;;;;;;;36.30;4.70;;;;;;;;;;1276981;23;20421;-74
2024/02/20 02:31:20;;;;;;;2.55;1.80;;;;;;;;;;1270759;23;20481;-75
2024/02/20 02:31:50;;;;;;;3.08;2.50;;;;;;;;;;1271011;23;20001;-74
2024/02/20 02:32:21;;;;;;;6.00;5.47;;;;;;;;;;1270592;23;20015;-74
2024/02/20 02:32:51;;;;;;;4.68;4.03;;;;;;;;;;1264843;23;20008;-74
2024/02/20 02:33:22;;;;;;;12.27;4.70;;;;;;;;;;1270885;23;20016;-74
2024/02/20 02:33:52;;;;;;;5.93;5.40;;;;;;;;;;1270431;23;20005;-75
2024/02/20 02:34:24;;;;;;;8.43;7.10;;;;;;;;;;1271350;23;20291;-74
2024/02/20 02:34:54;;;;;;;3.15;2.28;;;;;;;;;;1277393;23;20024;-75
2024/02/20 02:35:25;;;;;;;4.95;4.55;;;;;;;;;;1277159;23;20009;-74
2024/02/20 02:35:59;;;;;;;5.22;4.20;;;;;;;;;;1277106;23;20021;-75
2024/02/20 02:36:30;;;;;;;3.10;2.90;;;;;;;;;;1277619;23;20098;-74
2024/02/20 02:37:00;;;;;;;6.72;6.13;;;;;;;;;;1275959;23;20430;-75
2024/02/20 02:37:31;;;;;;;12.15;6.30;;;;;;;;;;1276697;23;20008;-75
2024/02/20 02:38:02;;;;;;;4.47;3.20;;;;;;;;;;1276549;23;20500;-75
2024/02/20 02:38:32;;;;;;;5.45;5.00;;;;;;;;;;1277382;23;20099;-75
2024/02/20 02:39:03;;;;;;;2.05;1.85;;;;;;;;;;1282983;23;20166;-75
2024/02/20 02:39:33;;;;;;;14.13;5.00;;;;;;;;;;1276452;23;20079;-75
2024/02/20 02:40:04;;;;;;;2.38;2.25;;;;;;;;;;1276760;23;20008;-76
2024/02/20 02:40:35;;;;;;;2.50;2.28;;;;;;;;;;1277023;23;20096;-75
2024/02/20 02:41:07;;;;;;;2.50;2.30;;;;;;;;;;1276800;23;19993;-75
2024/02/20 02:41:37;;;;;;;7.05;4.03;;;;;;;;;;1282995;23;20004;-75
2024/02/20 02:42:08;;;;;;;3.35;3.15;;;;;;;;;;1282321;23;20337;-74
2024/02/20 02:42:39;;;;;;;2.20;2.10;;;;;;;;;;1270309;23;20533;-75
2024/02/20 02:43:11;;;;;;;4.18;3.78;;;;;;;;;;1277196;23;20461;-75
2024/02/20 02:43:42;;;;;;;4.15;3.75;;;;;;;;;;1269944;23;20005;-74
2024/02/20 02:44:13;;;;;;;4.10;2.95;;;;;;;;;;1270075;23;20367;-74
2024/02/20 02:44:46;;;;;;;5.40;4.93;;;;;;;;;;1269737;23;20009;-74
2024/02/20 02:45:17;;;;;;;4.38;4.00;;;;;;;;;;1265167;23;20008;-74
2024/02/20 02:45:48;;;;;;;5.70;5.15;;;;;;;;;;1270863;23;20010;-75
2024/02/20 02:46:18;;;;;;;6.07;4.25;;;;;;;;;;1271065;23;20005;-75
2024/02/20 02:46:49;;;;;;;3.33;3.03;;;;;;;;;;1277058;23;20087;-74
2024/02/20 02:47:20;;;;;;;5.03;4.10;;;;;;;;;;1276466;23;20016;-75
2024/02/20 02:47:52;;;;;;;4.85;4.25;;;;;;;;;;1269887;23;20005;-75
2024/02/20 02:48:23;;;;;;;13.77;7.47;;;;;;;;;;1271037;23;20311;-75
2024/02/20 02:48:54;;;;;;;8.38;5.35;;;;;;;;;;1263245;23;20016;-76
2024/02/20 02:49:25;;;;;;;5.72;4.78;;;;;;;;;;1263988;23;20010;-74
2024/02/20 02:49:55;;;;;;;10.02;7.20;;;;;;;;;;1262523;23;20014;-73
2024/02/20 02:50:26;;;;;;;5.25;4.85;;;;;;;;;;1263430;23;20009;-76
2024/02/20 02:50:57;;;;;;;3.90;3.55;;;;;;;;;;1269514;23;20073;-76
2024/02/20 02:51:27;;;;;;;3.30;3.08;;;;;;;;;;1268916;23;20513;-74
2024/02/20 02:52:00;;;;;;;4.85;3.15;;;;;;;;;;1269316;23;20049;-75
2024/02/20 02:52:31;;;;;;;11.88;9.63;;;;;;;;;;1269115;23;20013;-75
2024/02/20 02:53:05;;;;;;;15.40;8.77;;;;;;;;;;1263374;23;20012;-75
2024/02/20 02:53:39;;;;;;;4.57;4.15;;;;;;;;;;1270910;23;20044;-74
2024/02/20 02:54:11;;;;;;;2.72;2.17;;;;;;;;;;1275685;23;20009;-74
2024/02/20 02:54:43;;;;;;;18.02;8.98;;;;;;;;;;1272123;23;20040;-75
2024/02/20 02:55:14;;;;;;;12.27;6.90;;;;;;;;;;1269953;23;20417;-74
2024/02/20 02:55:45;;;;;;;11.38;6.50;;;;;;;;;;1263651;23;20010;-76
2024/02/20 02:56:16;;;;;;;2.05;1.95;;;;;;;;;;1264686;23;20010;-74
2024/02/20 02:56:47;;;;;;;2.25;2.15;;;;;;;;;;1264377;23;20006;-75
2024/02/20 02:57:18;;;;;;;15.55;5.70;;;;;;;;;;1262512;23;20510;-76
2024/02/20 02:57:49;;;;;;;3.97;3.63;;;;;;;;;;1263151;23;20006;-75
2024/02/20 02:58:19;;;;;;;3.40;2.92;;;;;;;;;;1264132;23;20096;-75
2024/02/20 02:58:50;;;;;;;11.95;7.38;;;;;;;;;;1270689;23;20441;-76
2024/02/20 02:59:21;;;;;;;12.70;6.30;;;;;;;;;;1275382;23;20004;-76
2024/02/20 02:59:52;;;;;;;6.57;5.50;;;;;;;;;;1275737;23;20381;-75
2024/02/20 03:00:22;;;;;;;4.28;3.65;;;;;;;;;;1276129;23;20009;-74
2024/02/20 03:00:56;;;;;;;2.88;2.63;;;;;;;;;;1276414;23;20005;-76
2024/02/20 03:01:27;;;;;;;5.18;4.72;;;;;;;;;;1276525;23;20036;-74
2024/02/20 03:01:57;;;;;;;4.47;3.15;;;;;;;;;;1271007;23;20009;-75
2024/02/20 03:02:31;;;;;;;40.70;3.83;;;;;;;;;;1266696;23;20017;-75
2024/02/20 03:03:04;;;;;;;6.68;4.07;;;;;;;;;;1259829;23;20363;-78
2024/02/20 03:03:36;;;;;;;13.88;7.43;;;;;;;;;;1271255;23;20041;-75
2024/02/20 03:04:12;;;;;;;16.13;7.57;;;;;;;;;;1276305;23;20016;-77
2024/02/20 03:04:46;;;;;;;3.92;3.70;;;;;;;;;;1271925;23;20017;-74
2024/02/20 03:05:18;;;;;;;6.85;3.72;;;;;;;;;;1270420;23;20576;-75
2024/02/20 03:05:49;;;;;;;15.60;9.05;;;;;;;;;;1268856;23;20017;-75